Time;durP1;ratioP1;P1;durP2;ratioP2;P2;SDS_P1;SDS_P2;PMS_P1;PMS_P2;Temp;Humidity;BMP_temperature;BMP_pressure;BME280_temperature;BME280_humidity;BME280_pressure;Samples;Min_cycle;Max_cycle;Signal;HPM_P1;HPM_P2
2024/02/29 00:03:08;;;;;;;13.77;9.07;;;;;;;4.47;100.00;101399.77;5130178;55;1138764;-79
2024/02/29 00:08:12;;;;;;;14.83;8.18;;;;;;;4.39;100.00;101391.81;5133450;56;1138401;-79
2024/02/29 00:13:18;;;;;;;14.33;8.20;;;;;;;4.30;100.00;101403.47;5113395;56;1138727;-79
2024/02/29 00:18:23;;;;;;;14.15;8.35;;;;;;;4.28;100.00;101411.02;5114315;55;1138858;-79
2024/02/29 00:23:29;;;;;;;19.50;9.67;;;;;;;4.28;100.00;101417.08;5113532;56;1140707;-79
2024/02/29 00:28:34;;;;;;;16.50;8.73;;;;;;;4.31;100.00;101413.04;5145143;56;1138591;-79
2024/02/29 00:33:41;;;;;;;22.73;10.82;;;;;;;4.29;100.00;101417.48;5133439;56;1138898;-79
2024/02/29 00:38:47;;;;;;;19.90;10.37;;;;;;;4.24;100.00;101421.59;5133273;56;1140796;-79
2024/02/29 00:43:53;;;;;;;20.93;11.87;;;;;;;4.14;100.00;101421.97;5154004;55;1140733;-79
2024/02/29 00:48:58;;;;;;;15.53;8.73;;;;;;;4.08;100.00;101434.84;5016977;56;1141016;-79
2024/02/29 00:54:04;;;;;;;15.20;8.40;;;;;;;4.08;100.00;101429.61;5134146;55;1138763;-79
2024/02/29 00:59:09;;;;;;;21.77;11.45;;;;;;;4.05;100.00;101430.17;5152459;55;1139107;-79
2024/02/29 01:04:15;;;;;;;20.23;10.15;;;;;;;3.99;100.00;101430.37;4967122;57;1141007;-79
2024/02/29 01:09:26;;;;;;;17.65;11.15;;;;;;;3.97;100.00;101429.16;4967013;57;1140884;-79
2024/02/29 01:14:28;;;;;;;18.00;9.20;;;;;;;3.99;100.00;101422.52;4969208;56;1140824;-79
2024/02/29 01:19:34;;;;;;;21.43;10.70;;;;;;;3.99;100.00;101411.60;5215754;55;1138432;-79
2024/02/29 01:24:39;;;;;;;18.40;10.03;;;;;;;3.98;100.00;101415.12;5200511;55;1140637;-79
2024/02/29 01:29:45;;;;;;;13.40;7.67;;;;;;;3.99;100.00;101415.98;5199001;55;1140944;-79
2024/02/29 01:34:50;;;;;;;16.43;9.33;;;;;;;4.04;100.00;101416.68;5218955;55;1138876;-79
2024/02/29 01:39:56;;;;;;;18.45;10.65;;;;;;;4.05;100.00;101406.16;5200224;55;1140990;-79
2024/02/29 01:45:02;;;;;;;24.93;12.30;;;;;;;4.04;100.00;101404.91;5199846;54;1140572;-79
2024/02/29 01:50:10;;;;;;;24.27;11.97;;;;;;;3.95;100.00;101402.17;5241832;55;1140721;-79
2024/02/29 01:55:15;;;;;;;21.68;11.15;;;;;;;3.94;100.00;101399.61;5224814;54;1140933;-79
2024/02/29 02:00:21;;;;;;;14.80;9.87;;;;;;;3.98;100.00;101403.80;5284954;54;1143237;-79
2024/02/29 02:05:27;;;;;;;19.37;12.05;;;;;;;4.00;100.00;101401.53;5312385;54;1138590;-79
2024/02/29 02:10:33;;;;;;;30.13;15.47;;;;;;;3.99;100.00;101398.52;5332653;54;1140732;-79
2024/02/29 02:15:38;;;;;;;26.60;14.10;;;;;;;4.06;100.00;101384.77;5312446;54;1140892;-79
2024/02/29 02:20:44;;;;;;;29.67;15.88;;;;;;;4.06;100.00;101390.85;5312467;54;1141031;-79
2024/02/29 02:25:49;;;;;;;39.60;17.90;;;;;;;4.04;100.00;101380.03;5289792;54;1140876;-79
2024/02/29 02:30:56;;;;;;;32.73;15.50;;;;;;;4.00;100.00;101374.50;5252664;54;1140892;-79
2024/02/29 02:36:01;;;;;;;41.83;17.90;;;;;;;3.98;100.00;101368.02;5311744;54;1140825;-79
2024/02/29 02:41:07;;;;;;;36.50;17.33;;;;;;;4.05;100.00;101359.50;5299951;54;1140386;-79
2024/02/29 02:46:13;;;;;;;45.03;21.00;;;;;;;4.10;100.00;101357.12;5221848;54;1140617;-79
2024/02/29 02:51:19;;;;;;;42.47;18.30;;;;;;;4.15;100.00;101357.77;5221783;55;1140507;-79
2024/02/29 02:56:24;;;;;;;37.58;18.77;;;;;;;4.13;100.00;101354.81;5241537;55;1140680;-79
2024/02/29 03:01:30;;;;;;;33.73;15.78;;;;;;;4.11;100.00;101340.95;5266018;54;1140848;-79
2024/02/29 03:06:35;;;;;;;43.25;18.52;;;;;;;4.05;100.00;101332.02;5311932;54;1140766;-79
2024/02/29 03:11:41;;;;;;;40.13;18.90;;;;;;;4.07;100.00;101332.36;5333172;54;1140989;-79
2024/02/29 03:16:46;;;;;;;37.43;17.53;;;;;;;4.03;100.00;101322.91;5311797;54;1140738;-79
2024/02/29 03:21:52;;;;;;;32.37;16.23;;;;;;;4.02;100.00;101322.51;5311921;54;1140890;-79
2024/02/29 03:26:58;;;;;;;37.60;15.67;;;;;;;3.98;100.00;101331.83;5332927;54;1140793;-79
2024/02/29 03:32:03;;;;;;;35.73;17.47;;;;;;;3.97;100.00;101329.70;5309220;54;1140874;-79
2024/02/29 03:37:09;;;;;;;42.40;19.43;;;;;;;4.00;100.00;101330.02;5182841;55;1140708;-79
2024/02/29 03:42:17;;;;;;;34.87;17.27;;;;;;;3.88;100.00;101332.64;5262230;54;1142554;-79
2024/02/29 03:47:22;;;;;;;35.15;17.45;;;;;;;3.79;100.00;101330.38;5233327;54;1140837;-79
2024/02/29 03:52:27;;;;;;;37.33;16.07;;;;;;;3.74;100.00;101321.37;5244939;54;1140821;-78
2024/02/29 03:57:33;;;;;;;32.17;16.20;;;;;;;3.74;100.00;101320.06;5257921;55;1140877;-79
2024/02/29 04:02:41;;;;;;;40.53;18.47;;;;;;;3.69;100.00;101318.06;5137250;55;1140865;-79
2024/02/29 04:07:46;;;;;;;38.67;17.47;;;;;;;3.71;100.00;101314.09;5084104;55;1140925;-79
2024/02/29 04:12:52;;;;;;;34.03;16.20;;;;;;;3.67;100.00;101313.79;5084262;56;1140849;-79
2024/02/29 04:17:58;;;;;;;33.50;15.20;;;;;;;3.67;100.00;101312.03;5104252;55;1140870;-79
2024/02/29 04:23:04;;;;;;;33.45;17.25;;;;;;;3.72;100.00;101311.42;5105967;55;1140692;-79
2024/02/29 04:28:09;;;;;;;40.93;18.13;;;;;;;3.70;100.00;101301.45;5091365;55;1140678;-79
2024/02/29 04:33:15;;;;;;;36.23;18.30;;;;;;;3.71;100.00;101304.47;5185645;55;1140804;-79
2024/02/29 04:38:20;;;;;;;40.08;20.02;;;;;;;3.70;100.00;101305.38;5129731;55;1140728;-79
2024/02/29 04:43:26;;;;;;;42.62;20.68;;;;;;;3.65;100.00;101307.34;5134564;55;1141120;-79
2024/02/29 04:48:33;;;;;;;33.85;17.92;;;;;;;3.61;100.00;101307.04;5134217;55;1140925;-79
2024/02/29 04:53:39;;;;;;;35.10;18.47;;;;;;;3.56;100.00;101310.27;5224956;54;1140844;-79
2024/02/29 04:58:44;;;;;;;37.60;18.77;;;;;;;3.48;100.00;101306.62;5232638;54;1140847;-79
2024/02/29 05:03:50;;;;;;;33.83;16.87;;;;;;;3.51;100.00;101306.98;5183746;54;1140834;-79
2024/02/29 05:08:56;;;;;;;33.30;18.83;;;;;;;3.53;100.00;101305.14;5197234;54;1141112;-80
2024/02/29 05:14:01;;;;;;;28.62;15.38;;;;;;;3.53;100.00;101304.69;5222847;54;1140988;-79
2024/02/29 05:19:07;;;;;;;35.43;17.65;;;;;;;3.59;100.00;101306.23;5220396;55;1140695;-80
2024/02/29 05:24:12;;;;;;;25.00;14.63;;;;;;;3.65;100.00;101310.41;5282572;54;1140535;-79
2024/02/29 05:29:18;;;;;;;25.25;13.10;;;;;;;3.61;100.00;101314.89;5119622;56;1140649;-80
2024/02/29 05:34:24;;;;;;;26.35;14.87;;;;;;;3.56;100.00;101314.19;5130697;56;1140821;-80
2024/02/29 05:39:33;;;;;;;23.07;13.35;;;;;;;3.54;100.00;101314.69;5040927;56;1140998;-80
2024/02/29 05:44:39;;;;;;;21.47;12.93;;;;;;;3.48;100.00;101320.16;5030104;56;1140757;-80
2024/02/29 05:49:45;;;;;;;19.13;11.33;;;;;;;3.42;100.00;101302.06;4987979;57;1140900;-75
2024/02/29 05:54:50;;;;;;;23.77;13.37;;;;;;;3.42;100.00;101311.21;4993982;56;1140684;-78
2024/02/29 05:59:56;;;;;;;22.03;11.63;;;;;;;3.46;100.00;101318.05;5013571;57;1140870;-77
2024/02/29 06:05:01;;;;;;;34.97;18.77;;;;;;;3.49;100.00;101320.56;4947014;56;1140866;-79
2024/02/29 06:10:13;;;;;;;30.17;14.73;;;;;;;3.53;100.00;101320.38;5004892;55;1141149;-75
2024/02/29 06:15:16;;;;;;;21.90;12.90;;;;;;;3.51;100.00;101315.65;5073703;56;1140854;-80
2024/02/29 06:20:22;;;;;;;22.87;12.67;;;;;;;3.47;100.00;101321.06;5000182;56;1140821;-78
2024/02/29 06:25:28;;;;;;;19.93;11.67;;;;;;;3.51;100.00;101314.83;5085010;56;1140687;-79
2024/02/29 06:30:34;;;;;;;21.80;11.83;;;;;;;3.50;100.00;101305.27;5058743;56;1140558;-79
2024/02/29 06:35:39;;;;;;;20.87;12.50;;;;;;;3.56;100.00;101309.41;5010327;57;1140935;-80
2024/02/29 06:40:46;;;;;;;20.27;12.20;;;;;;;3.61;100.00;101320.57;5071097;56;1140908;-71
2024/02/29 06:45:52;;;;;;;29.10;16.03;;;;;;;3.56;100.00;101319.88;5132200;56;1140935;-70
2024/02/29 06:50:58;;;;;;;23.33;12.57;;;;;;;3.57;100.00;101319.81;5095055;56;1140735;-69
2024/02/29 06:56:07;;;;;;;20.93;12.33;;;;;;;3.67;100.00;101310.72;5103234;55;1140842;-71
2024/02/29 07:01:19;;;;;;;22.20;13.08;;;;;;;3.71;100.00;101307.09;5014386;57;1142898;-72
2024/02/29 07:06:23;;;;;;;24.98;13.50;;;;;;;3.78;100.00;101301.19;5159791;56;1140972;-71
2024/02/29 07:11:30;;;;;;;65.93;34.60;;;;;;;3.78;100.00;101305.11;5195856;55;1140706;-70
2024/02/29 07:16:36;;;;;;;66.72;31.73;;;;;;;3.76;100.00;101293.39;5200393;55;1140714;-71
2024/02/29 07:21:41;;;;;;;25.90;15.13;;;;;;;3.76;100.00;101292.09;5282611;54;1140821;-72
2024/02/29 07:26:47;;;;;;;32.30;16.83;;;;;;;3.78;100.00;101294.20;5241311;54;1140694;-71
2024/02/29 07:31:52;;;;;;;20.45;12.23;;;;;;;3.86;100.00;101295.20;5224035;54;1140820;-71
2024/02/29 07:36:58;;;;;;;27.53;14.90;;;;;;;3.96;100.00;101299.66;5300444;54;1142933;-70
2024/02/29 07:42:04;;;;;;;31.77;17.33;;;;;;;3.92;100.00;101294.13;5239283;54;1140913;-70
2024/02/29 07:47:09;;;;;;;27.40;14.57;;;;;;;3.94;100.00;101292.31;5169602;55;1140681;-71
2024/02/29 07:52:15;;;;;;;25.87;13.70;;;;;;;3.97;100.00;101302.67;5189643;55;1140473;-72
2024/02/29 07:57:20;;;;;;;27.67;13.43;;;;;;;3.97;100.00;101303.98;5169789;55;1140594;-72
2024/02/29 08:02:26;;;;;;;36.00;16.00;;;;;;;4.03;100.00;101307.66;5173876;55;1143038;-72
2024/02/29 08:07:32;;;;;;;29.18;16.50;;;;;;;4.07;100.00;101298.78;5196463;54;1141035;-70
2024/02/29 08:12:37;;;;;;;24.00;15.17;;;;;;;4.09;100.00;101293.89;5190238;55;1141047;-70
2024/02/29 08:17:43;;;;;;;26.93;15.20;;;;;;;4.13;100.00;101294.15;5227230;54;1140951;-70
2024/02/29 08:22:53;;;;;;;26.53;15.13;;;;;;;4.19;100.00;101293.07;5195176;55;1142962;-70
2024/02/29 08:27:57;;;;;;;37.83;21.87;;;;;;;4.28;100.00;101282.71;5191545;55;1142673;-69
2024/02/29 08:33:03;;;;;;;27.67;16.17;;;;;;;4.32;100.00;101286.44;5199737;55;1140771;-80
2024/02/29 08:38:09;;;;;;;38.30;16.80;;;;;;;4.36;100.00;101282.80;5169613;55;1141233;-76
2024/02/29 08:43:14;;;;;;;24.73;14.50;;;;;;;4.35;100.00;101270.61;5256857;54;1141010;-79
2024/02/29 08:48:20;;;;;;;27.90;15.07;;;;;;;4.40;100.00;101275.22;5251297;53;1143127;-81
2024/02/29 08:53:25;;;;;;;65.50;35.50;;;;;;;4.50;100.00;101270.45;5222112;54;1143012;-82
2024/02/29 08:58:31;;;;;;;40.67;23.73;;;;;;;4.58;100.00;101257.42;5221999;53;1143067;-81
2024/02/29 09:03:36;;;;;;;35.83;16.63;;;;;;;4.66;100.00;101257.58;5277724;54;1140696;-77
2024/02/29 09:08:42;;;;;;;44.27;21.20;;;;;;;4.70;100.00;101266.56;5223965;54;1140834;-77
2024/02/29 09:13:48;;;;;;;21.60;12.00;;;;;;;4.73;100.00;101257.73;5291995;53;1140685;-75
2024/02/29 09:18:53;;;;;;;16.30;10.13;;;;;;;4.80;100.00;101257.86;5258233;54;1143122;-76
2024/02/29 09:23:59;;;;;;;27.57;14.17;;;;;;;4.92;100.00;101254.70;5183394;54;1142934;-76
2024/02/29 09:29:04;;;;;;;25.00;13.10;;;;;;;4.99;100.00;101252.23;5181495;54;1142916;-74
2024/02/29 09:34:10;;;;;;;20.03;11.47;;;;;;;5.04;100.00;101254.67;5236787;55;1140730;-76
2024/02/29 09:39:16;;;;;;;27.03;14.67;;;;;;;5.03;100.00;101250.34;5210436;55;1141182;-77
2024/02/29 09:44:21;;;;;;;24.43;13.63;;;;;;;5.06;100.00;101252.34;5192827;55;1142757;-80
2024/02/29 09:49:28;;;;;;;28.30;14.95;;;;;;;5.16;100.00;101249.74;5159876;55;1143320;-80
2024/02/29 09:54:35;;;;;;;29.77;15.03;;;;;;;5.25;100.00;101235.36;5225979;54;1143055;-80
2024/02/29 09:59:43;;;;;;;34.38;18.87;;;;;;;5.25;100.00;101232.73;5270040;54;1142791;-78
2024/02/29 10:04:49;;;;;;;25.00;13.97;;;;;;;5.25;100.00;101228.80;5209266;55;1140695;-79
2024/02/29 10:09:56;;;;;;;42.80;17.60;;;;;;;5.27;100.00;101225.66;5227642;54;1140637;-80
2024/02/29 10:15:04;;;;;;;29.40;14.07;;;;;;;5.33;100.00;101224.55;5189494;54;1142832;-81
2024/02/29 10:20:12;;;;;;;47.73;22.02;;;;;;;5.45;100.00;101226.61;5161709;55;1142698;-78
2024/02/29 10:25:21;;;;;;;33.60;17.75;;;;;;;5.55;100.00;101213.45;5191288;54;1142928;-74
2024/02/29 10:30:28;;;;;;;42.30;18.27;;;;;;;5.60;100.00;101208.41;5167925;54;1261724;-81
2024/02/29 10:35:35;;;;;;;44.08;18.27;;;;;;;5.67;100.00;101203.70;5194666;54;1142913;-80
2024/02/29 10:40:41;;;;;;;46.48;22.40;;;;;;;5.75;100.00;101195.48;5201967;54;1143093;-76
2024/02/29 10:45:50;;;;;;;68.67;33.27;;;;;;;5.79;100.00;101184.78;5219357;55;1142812;-79
2024/02/29 10:51:10;;;;;;;39.43;20.23;;;;;;;5.91;100.00;101178.98;5202145;54;1142831;-80
2024/02/29 10:56:23;;;;;;;35.97;18.77;;;;;;;6.02;100.00;101157.91;5226443;54;1142789;-82
2024/02/29 11:01:28;;;;;;;45.43;24.73;;;;;;;6.11;100.00;101154.86;5223370;54;1143004;-79
2024/02/29 11:06:45;;;;;;;42.10;21.75;;;;;;;6.21;100.00;101149.53;5175284;55;1142858;-77
2024/02/29 11:12:13;;;;;;;38.20;20.10;;;;;;;6.32;100.00;101148.52;5257078;54;1142961;-79
2024/02/29 11:17:18;;;;;;;54.80;25.77;;;;;;;6.38;100.00;101140.81;5020856;57;1142845;-79
2024/02/29 11:22:41;;;;;;;61.73;30.68;;;;;;;6.44;100.00;101129.97;5041199;57;1143015;-80
2024/02/29 11:27:50;;;;;;;41.83;22.07;;;;;;;6.46;100.00;101119.78;4972997;57;1140983;-81
2024/02/29 11:32:59;;;;;;;57.10;27.58;;;;;;;6.46;100.00;101116.30;4893360;58;1143119;-83
2024/02/29 11:38:04;;;;;;;68.90;33.17;;;;;;;6.50;100.00;101100.30;4862449;58;1142951;-82
2024/02/29 11:43:11;;;;;;;45.30;22.30;;;;;;;6.58;100.00;101101.21;4901966;58;1142993;-82
2024/02/29 11:48:17;;;;;;;39.80;20.35;;;;;;;6.63;100.00;101100.05;4961075;57;1142821;-78
2024/02/29 11:53:23;;;;;;;82.50;40.63;;;;;;;6.62;100.00;101098.36;4923651;57;1148160;-78
2024/02/29 11:58:28;;;;;;;55.40;30.20;;;;;;;6.64;100.00;101083.36;4882448;57;1143283;-81
2024/02/29 12:03:34;;;;;;;49.83;30.33;;;;;;;6.71;100.00;101082.59;4943389;57;1143160;-79
2024/02/29 12:08:40;;;;;;;35.40;20.20;;;;;;;6.79;100.00;101076.91;4900946;58;1142882;-76
2024/02/29 12:13:46;;;;;;;42.27;20.77;;;;;;;6.85;100.00;101062.98;4908840;57;1142907;-77
2024/02/29 12:18:55;;;;;;;39.43;22.77;;;;;;;6.88;100.00;101052.28;4958033;57;1143120;-81
2024/02/29 12:24:02;;;;;;;37.50;23.13;;;;;;;6.89;100.00;101046.09;4941859;58;1143191;-78
2024/02/29 12:29:09;;;;;;;27.90;17.77;;;;;;;6.95;100.00;101037.03;4882670;57;1143144;-78
2024/02/29 12:34:17;;;;;;;36.67;19.60;;;;;;;7.03;100.00;101029.56;4877287;57;1142915;-84
2024/02/29 12:39:23;;;;;;;113.10;62.40;;;;;;;7.06;100.00;101018.41;4907540;57;1145858;-80
2024/02/29 12:44:28;;;;;;;33.67;19.80;;;;;;;7.11;100.00;101012.06;4878460;58;1145025;-80
2024/02/29 12:49:34;;;;;;;32.67;19.52;;;;;;;7.16;100.00;101000.83;4893715;58;1143002;-77
2024/02/29 12:54:41;;;;;;;36.77;21.73;;;;;;;7.23;100.00;100988.55;4962957;57;1143369;-82
2024/02/29 12:59:46;;;;;;;34.97;20.33;;;;;;;7.28;100.00;100977.30;4884351;58;1143001;-77
2024/02/29 13:04:52;;;;;;;27.73;17.80;;;;;;;7.34;100.00;100976.94;4916282;57;1143219;-79
2024/02/29 13:09:57;;;;;;;34.00;17.90;;;;;;;7.41;100.00;100959.88;4972525;57;1142853;-83
2024/02/29 13:15:04;;;;;;;34.33;18.57;;;;;;;7.47;100.00;100959.16;4956740;57;1142968;-78
2024/02/29 13:20:10;;;;;;;37.60;20.03;;;;;;;7.52;100.00;100948.72;4882056;58;1142808;-76
2024/02/29 13:25:16;;;;;;;32.70;18.17;;;;;;;7.52;100.00;100945.24;4884066;58;1142970;-77
2024/02/29 13:30:22;;;;;;;32.03;17.50;;;;;;;7.52;100.00;100946.55;4938257;58;1143727;-79
2024/02/29 13:35:28;;;;;;;39.55;20.48;;;;;;;7.56;100.00;100944.13;4891510;58;1142842;-75
2024/02/29 13:40:33;;;;;;;33.78;19.07;;;;;;;7.57;100.00;100933.52;4928407;57;1142763;-78
2024/02/29 13:45:39;;;;;;;29.07;17.10;;;;;;;7.59;100.00;100931.66;4990141;57;1143101;-77
2024/02/29 13:50:45;;;;;;;27.73;15.93;;;;;;;7.62;100.00;100928.00;4970846;57;1142745;-87
2024/02/29 13:55:50;;;;;;;34.70;18.60;;;;;;;7.68;100.00;100924.98;4944398;57;1142752;-79
2024/02/29 14:00:56;;;;;;;37.17;18.90;;;;;;;7.69;100.00;100917.00;4957513;57;1142527;-78
2024/02/29 14:06:02;;;;;;;34.23;18.00;;;;;;;7.75;100.00;100913.16;5017056;57;1143077;-77
2024/02/29 14:11:08;;;;;;;46.90;19.77;;;;;;;7.80;100.00;100907.60;4957014;57;1143010;-80
2024/02/29 14:16:14;;;;;;;44.10;22.57;;;;;;;7.87;100.00;100907.63;4936292;57;1142746;-81
2024/02/29 14:21:20;;;;;;;53.20;22.83;;;;;;;7.84;100.00;100888.91;4888055;58;1142845;-75
2024/02/29 14:26:25;;;;;;;57.63;22.80;;;;;;;7.83;100.00;100894.26;4892318;58;1142821;-73
2024/02/29 14:31:31;;;;;;;47.80;21.90;;;;;;;7.86;100.00;100890.98;4892844;58;1142820;-78
2024/02/29 14:36:36;;;;;;;60.67;25.92;;;;;;;7.88;100.00;100885.16;4947702;57;1142928;-79
2024/02/29 14:41:42;;;;;;;71.03;29.77;;;;;;;7.89;100.00;100888.17;4885705;57;1142625;-78
2024/02/29 14:46:48;;;;;;;64.80;32.07;;;;;;;7.87;100.00;100883.92;4900895;58;1143158;-78
2024/02/29 14:51:57;;;;;;;54.80;24.87;;;;;;;7.85;100.00;100870.84;4959296;57;1142494;-76
2024/02/29 14:57:03;;;;;;;59.57;26.33;;;;;;;7.88;100.00;100863.23;4877146;58;1143227;-76
2024/02/29 15:02:09;;;;;;;51.43;26.40;;;;;;;7.89;100.00;100856.56;4920733;58;1142902;-81
2024/02/29 15:07:15;;;;;;;102.53;45.03;;;;;;;7.92;100.00;100854.22;4982272;57;1142885;-82
2024/02/29 15:12:22;;;;;;;57.20;28.43;;;;;;;7.91;100.00;100844.16;4934112;57;1144979;-76
2024/02/29 15:17:28;;;;;;;64.77;32.23;;;;;;;7.93;100.00;100838.80;4996552;57;1142831;-80
2024/02/29 15:22:34;;;;;;;90.13;44.83;;;;;;;7.94;100.00;100837.86;4970081;57;1142941;-77
2024/02/29 15:27:39;;;;;;;89.90;42.83;;;;;;;7.95;100.00;100829.83;4973013;57;1152618;-73
2024/02/29 15:32:45;;;;;;;59.27;30.63;;;;;;;7.94;100.00;100832.12;4945256;57;1143014;-78
2024/02/29 15:37:51;;;;;;;59.85;34.80;;;;;;;7.94;100.00;100816.32;4893676;57;1145022;-80
2024/02/29 15:42:56;;;;;;;56.67;29.07;;;;;;;7.97;100.00;100816.57;4909531;57;1143053;-78
2024/02/29 15:48:02;;;;;;;51.57;28.90;;;;;;;8.01;100.00;100814.98;4989744;57;1143025;-80
2024/02/29 15:53:07;;;;;;;56.00;30.10;;;;;;;8.05;100.00;100803.79;4934244;56;1142847;-77
2024/02/29 15:58:13;;;;;;;67.47;32.07;;;;;;;8.00;100.00;100801.44;4953971;57;1142977;-79
2024/02/29 16:03:18;;;;;;;63.47;31.30;;;;;;;7.97;100.00;100802.94;4941687;58;1142850;-81
2024/02/29 16:08:25;;;;;;;59.75;31.17;;;;;;;7.95;100.00;100796.91;4912405;57;1142893;-80
2024/02/29 16:13:31;;;;;;;59.38;30.20;;;;;;;7.97;100.00;100792.87;4934190;58;1142896;-82
2024/02/29 16:18:36;;;;;;;49.67;25.47;;;;;;;7.96;100.00;100785.44;4952875;58;1143072;-76
2024/02/29 16:23:42;;;;;;;49.73;27.40;;;;;;;7.95;100.00;100779.80;4933152;58;1142952;-76
2024/02/29 16:28:47;;;;;;;57.80;27.83;;;;;;;7.96;100.00;100777.54;4956682;58;1142813;-82
2024/02/29 16:33:53;;;;;;;48.33;27.33;;;;;;;7.96;100.00;100774.05;4967615;58;1143022;-76
2024/02/29 16:38:59;;;;;;;80.67;49.43;;;;;;;8.00;100.00;100772.46;4942123;58;1143027;-79
2024/02/29 16:44:05;;;;;;;61.27;34.80;;;;;;;8.00;100.00;100767.19;4810630;58;1142975;-81
2024/02/29 16:49:10;;;;;;;54.20;31.03;;;;;;;7.99;100.00;100760.70;4961297;57;1142922;-76
2024/02/29 16:54:16;;;;;;;62.97;35.70;;;;;;;7.97;100.00;100751.58;4942101;58;1142785;-84
2024/02/29 16:59:21;;;;;;;50.40;27.90;;;;;;;8.01;100.00;100756.19;4942565;58;1143062;-79
2024/02/29 17:04:27;;;;;;;59.23;32.47;;;;;;;8.01;100.00;100761.45;4920529;58;1143183;-78
2024/02/29 17:09:33;;;;;;;55.73;31.60;;;;;;;7.97;100.00;100754.21;4891550;58;1142973;-76
2024/02/29 17:14:38;;;;;;;58.23;30.72;;;;;;;7.95;100.00;100746.88;4891601;58;1142826;-77
2024/02/29 17:19:44;;;;;;;63.97;33.47;;;;;;;7.96;100.00;100743.77;4910488;58;1142795;-81
2024/02/29 17:24:50;;;;;;;57.87;32.00;;;;;;;7.98;100.00;100744.05;4895217;58;1143024;-74
2024/02/29 17:29:55;;;;;;;67.30;39.30;;;;;;;8.01;100.00;100742.55;4933036;57;1142906;-80
2024/02/29 17:35:01;;;;;;;68.57;36.53;;;;;;;7.99;100.00;100748.38;4953529;58;1142935;-77
2024/02/29 17:40:08;;;;;;;71.27;39.03;;;;;;;7.98;100.00;100741.89;4918927;58;1143026;-80
2024/02/29 17:45:13;;;;;;;56.33;31.70;;;;;;;7.99;100.00;100747.53;4943537;57;1143048;-76
2024/02/29 17:50:20;;;;;;;52.07;29.80;;;;;;;7.97;100.00;100738.87;4963256;57;1142990;-75
2024/02/29 17:55:28;;;;;;;56.40;30.40;;;;;;;7.99;100.00;100733.89;4944037;57;1142809;-84
2024/02/29 18:00:33;;;;;;;61.25;32.35;;;;;;;8.00;100.00;100723.73;4943931;57;1143129;-82
2024/02/29 18:05:40;;;;;;;72.53;36.00;;;;;;;8.02;100.00;100725.80;4962933;57;1142883;-81
2024/02/29 18:10:45;;;;;;;74.85;36.75;;;;;;;8.01;100.00;100716.68;4944263;56;1142888;-77
2024/02/29 18:15:51;;;;;;;52.73;29.37;;;;;;;8.01;100.00;100708.78;4933163;57;1142833;-79
2024/02/29 18:20:56;;;;;;;55.00;29.97;;;;;;;8.04;100.00;100699.38;4956393;57;1142618;-72
2024/02/29 18:26:02;;;;;;;59.80;31.40;;;;;;;8.06;100.00;100697.02;4911310;57;1178097;-71
2024/02/29 18:31:08;;;;;;;71.70;36.87;;;;;;;8.11;100.00;100688.33;4904917;57;1162794;-72
2024/02/29 18:36:13;;;;;;;57.03;33.10;;;;;;;8.12;100.00;100690.02;4930727;58;1200040;-73
2024/02/29 18:41:19;;;;;;;55.50;31.47;;;;;;;8.09;100.00;100678.39;4899699;57;1143396;-73
2024/02/29 18:46:25;;;;;;;62.37;32.47;;;;;;;8.11;100.00;100668.56;4902403;57;1142955;-70
2024/02/29 18:51:30;;;;;;;56.93;30.40;;;;;;;8.11;100.00;100668.56;4926817;58;1142740;-74
2024/02/29 18:56:36;;;;;;;61.20;33.90;;;;;;;8.15;100.00;100664.42;4916270;57;1188679;-73
2024/02/29 19:01:44;;;;;;;58.30;32.58;;;;;;;8.15;100.00;100663.10;4961736;57;1143294;-74
2024/02/29 19:06:50;;;;;;;60.37;37.47;;;;;;;8.13;100.00;100660.56;4996759;57;1142777;-76
2024/02/29 19:11:57;;;;;;;57.63;31.00;;;;;;;8.13;100.00;100649.56;4970119;57;1142867;-75
2024/02/29 19:17:03;;;;;;;53.52;32.03;;;;;;;8.16;100.00;100642.41;4972987;57;1142923;-75
2024/02/29 19:22:09;;;;;;;51.43;31.10;;;;;;;8.18;100.00;100633.93;4987248;57;1142847;-75
2024/02/29 19:27:14;;;;;;;59.63;33.60;;;;;;;8.18;100.00;100632.61;4971913;57;1186966;-72
2024/02/29 19:32:21;;;;;;;57.67;32.10;;;;;;;8.17;100.00;100623.86;4991616;57;1142960;-70
2024/02/29 19:37:27;;;;;;;64.50;35.73;;;;;;;8.18;100.00;100620.77;4956499;57;1239340;-75
2024/02/29 19:42:33;;;;;;;60.10;34.17;;;;;;;8.21;100.00;100619.25;4951480;57;1143034;-72
2024/02/29 19:47:39;;;;;;;72.10;38.77;;;;;;;8.19;100.00;100619.81;4962654;57;1142811;-73
2024/02/29 19:52:45;;;;;;;59.48;32.98;;;;;;;8.18;100.00;100614.17;4929506;57;1194196;-72
2024/02/29 19:57:50;;;;;;;58.60;34.13;;;;;;;8.20;100.00;100599.95;4854851;59;1247171;-73
2024/02/29 20:02:56;;;;;;;66.47;34.07;;;;;;;8.24;100.00;100601.92;4929811;57;1142855;-71
2024/02/29 20:08:03;;;;;;;60.57;32.90;;;;;;;8.24;100.00;100595.34;4901661;57;1142843;-70
2024/02/29 20:13:09;;;;;;;63.97;34.53;;;;;;;8.21;100.00;100585.00;4829158;59;1221712;-71
2024/02/29 20:18:16;;;;;;;60.97;33.87;;;;;;;8.22;100.00;100582.27;4865841;58;1143991;-75
2024/02/29 20:23:21;;;;;;;59.97;34.40;;;;;;;8.24;100.00;100579.53;4902113;58;1142923;-72
2024/02/29 20:28:27;;;;;;;67.63;37.50;;;;;;;8.27;100.00;100576.19;4950034;57;1244126;-71
2024/02/29 20:33:33;;;;;;;66.17;37.57;;;;;;;8.27;100.00;100570.08;4926474;57;1240471;-74
2024/02/29 20:38:38;;;;;;;62.47;35.50;;;;;;;8.25;100.00;100561.45;4943634;56;1257624;-74
2024/02/29 20:43:44;;;;;;;59.68;34.30;;;;;;;8.26;100.00;100564.43;4962470;57;1142970;-73
2024/02/29 20:48:50;;;;;;;59.00;34.40;;;;;;;8.27;100.00;100560.38;4941703;58;1256830;-76
2024/02/29 20:53:56;;;;;;;74.77;37.77;;;;;;;8.27;100.00;100547.20;4941509;57;1253055;-77
2024/02/29 20:59:03;;;;;;;68.00;36.23;;;;;;;8.28;100.00;100544.09;4886115;58;1143012;-72
2024/02/29 21:04:09;;;;;;;59.87;35.30;;;;;;;8.27;100.00;100545.89;4862477;58;1142983;-73
2024/02/29 21:09:14;;;;;;;62.07;33.87;;;;;;;8.28;100.00;100540.14;4877597;58;1142911;-74
2024/02/29 21:14:20;;;;;;;62.50;33.67;;;;;;;8.28;100.00;100538.36;4953116;58;1142905;-74
2024/02/29 21:19:26;;;;;;;70.57;37.60;;;;;;;8.29;100.00;100532.14;4892450;58;1142943;-77
2024/02/29 21:24:31;;;;;;;63.93;35.33;;;;;;;8.28;100.00;100525.66;4885179;57;1242888;-73
2024/02/29 21:29:37;;;;;;;66.12;34.00;;;;;;;8.25;100.00;100514.03;4911531;57;1162623;-73
2024/02/29 21:34:44;;;;;;;67.05;34.60;;;;;;;8.22;100.00;100511.13;4957157;57;1143110;-72
2024/02/29 21:39:49;;;;;;;60.67;32.37;;;;;;;8.21;100.00;100502.85;4891270;58;1142873;-75
2024/02/29 21:44:55;;;;;;;58.67;31.13;;;;;;;8.20;100.00;100497.21;4889962;57;1245371;-69
2024/02/29 21:50:01;;;;;;;60.87;34.73;;;;;;;8.18;100.00;100491.20;4911946;57;1142975;-72
2024/02/29 21:55:08;;;;;;;65.70;36.87;;;;;;;8.13;100.00;100491.97;4930842;58;1155083;-73
2024/02/29 22:00:14;;;;;;;70.10;35.50;;;;;;;8.10;100.00;100481.64;4930710;57;1142840;-74
2024/02/29 22:05:20;;;;;;;71.23;35.60;;;;;;;8.06;100.00;100474.91;4978283;57;1143117;-70
2024/02/29 22:10:26;;;;;;;72.57;35.03;;;;;;;8.02;100.00;100467.69;4971982;57;1142832;-72
2024/02/29 22:15:32;;;;;;;70.30;36.43;;;;;;;8.00;100.00;100464.78;4937808;57;1143136;-73
2024/02/29 22:20:38;;;;;;;75.22;39.18;;;;;;;7.98;100.00;100464.04;4954233;57;1142963;-74
2024/02/29 22:25:44;;;;;;;69.65;36.10;;;;;;;7.99;100.00;100457.83;4953525;57;1143094;-73
2024/02/29 22:30:50;;;;;;;67.00;34.90;;;;;;;7.97;100.00;100450.03;4893699;57;1142605;-73
2024/02/29 22:35:55;;;;;;;79.97;37.70;;;;;;;7.99;100.00;100445.98;4887965;58;1142715;-74
2024/02/29 22:41:01;;;;;;;71.07;35.73;;;;;;;7.98;100.00;100445.61;4832918;59;1142841;-72